createdAt,value
2023-02-22T00:00:45.177Z,95081.25
2023-02-22T00:03:16.488Z,95085.22
2023-02-22T00:05:47.199Z,95090.84
2023-02-22T00:08:16.499Z,95094.31
2023-02-22T00:10:44.801Z,95093.56
2023-02-22T00:13:15.465Z,95092.75
2023-02-22T00:15:44.325Z,95094.78
2023-02-22T00:18:16.306Z,95092.81
2023-02-22T00:20:44.336Z,95084.41
2023-02-22T00:23:16.186Z,95088.19
2023-02-22T00:25:44.123Z,95091.16
2023-02-22T00:28:12.252Z,95088.78
2023-02-22T00:30:43.775Z,95087.59
2023-02-22T00:33:12.580Z,95089.63
2023-02-22T00:35:45.971Z,95085.28
2023-02-22T00:38:15.688Z,95090.47
2023-02-22T00:40:45.357Z,95087.66
2023-02-22T00:43:13.756Z,95081.66
2023-02-22T00:45:41.936Z,95084.84
2023-02-22T00:48:11.082Z,95083.25
2023-02-22T00:50:39.264Z,95095.25
2023-02-22T00:53:09.334Z,95092.88
2023-02-22T00:55:38.766Z,95087.28
2023-02-22T00:58:07.289Z,95084.50
2023-02-22T01:00:38.580Z,95088.53
2023-02-22T01:03:07.639Z,95083.75
2023-02-22T01:05:36.464Z,95089.38
2023-02-22T01:08:07.626Z,95086.78
2023-02-22T01:10:39.150Z,95084.19
2023-02-22T01:13:12.245Z,95083.00
2023-02-22T01:15:44.910Z,95090.22
2023-02-22T01:18:17.336Z,95089.44
2023-02-22T01:20:48.182Z,95085.03
2023-02-22T01:23:17.412Z,95087.84
2023-02-22T01:25:47.001Z,95081.09
2023-02-22T01:28:15.878Z,95085.13
2023-02-22T01:30:44.000Z,95089.13
2023-02-22T01:33:13.126Z,95081.13
2023-02-22T01:35:41.297Z,95085.94
2023-02-22T01:38:10.180Z,95085.50
2023-02-22T01:40:41.939Z,95088.09
2023-02-22T01:43:20.603Z,95080.72
2023-02-22T01:45:57.273Z,95079.91
2023-02-22T01:48:39.846Z,95078.75
2023-02-22T01:51:12.088Z,95074.75
2023-02-22T01:53:46.673Z,95078.53
2023-02-22T01:56:16.202Z,95073.13
2023-02-22T01:58:49.425Z,95073.91
2023-02-22T02:01:21.078Z,95077.91
2023-02-22T02:03:49.502Z,95072.34
2023-02-22T02:06:20.247Z,95074.72
2023-02-22T02:08:56.082Z,95076.31
2023-02-22T02:11:26.757Z,95074.28
2023-02-22T02:13:58.776Z,95073.19
2023-02-22T02:16:36.627Z,95068.75
2023-02-22T02:19:07.011Z,95062.72
2023-02-22T02:21:59.673Z,95060.72
2023-02-22T02:25:18.536Z,95063.91
2023-02-22T02:28:16.618Z,95061.56
2023-02-22T02:31:14.179Z,95060.38
2023-02-22T02:33:50.594Z,95058.38
2023-02-22T02:36:27.112Z,95058.38
2023-02-22T02:39:00.352Z,95054.34
2023-02-22T02:41:32.135Z,95053.97
2023-02-22T02:44:03.852Z,95052.78
2023-02-22T02:46:36.834Z,95043.59
2023-02-22T02:49:12.246Z,95052.00
2023-02-22T02:51:44.101Z,95044.41
2023-02-22T02:54:14.123Z,95042.59
2023-02-22T02:56:43.887Z,95039.41
2023-02-22T02:59:25.698Z,95038.03
2023-02-22T03:02:05.840Z,95040.41
2023-02-22T03:05:00.024Z,95043.59
2023-02-22T03:07:50.641Z,95050.63
2023-02-22T03:10:37.881Z,95040.81
2023-02-22T03:13:14.142Z,95050.03
2023-02-22T03:15:52.514Z,95054.91
2023-02-22T03:18:29.144Z,95054.94
2023-02-22T03:21:06.318Z,95052.53
2023-02-22T03:23:38.850Z,95046.16
2023-02-22T03:26:12.070Z,95051.75
2023-02-22T03:28:44.278Z,95049.56
2023-02-22T03:31:15.688Z,95048.97
2023-02-22T03:33:48.920Z,95048.97
2023-02-22T03:36:25.021Z,95042.94
2023-02-22T03:38:58.572Z,95041.53
2023-02-22T03:41:28.004Z,95046.13
2023-02-22T03:44:01.215Z,95058.13
2023-02-22T03:46:31.251Z,95047.72
2023-02-22T03:49:04.423Z,95052.91
2023-02-22T03:51:40.227Z,95051.91
2023-02-22T03:54:09.392Z,95051.31
2023-02-22T03:56:47.316Z,95059.13
2023-02-22T03:59:16.107Z,95054.13
2023-02-22T04:01:45.066Z,95058.94
2023-02-22T04:04:13.011Z,95054.16
2023-02-22T04:06:42.490Z,95044.19
2023-02-22T04:09:10.797Z,95034.19
2023-02-22T04:11:38.808Z,95041.38
2023-02-22T04:14:07.107Z,95035.81
2023-02-22T04:16:35.445Z,95038.59
2023-02-22T04:19:06.319Z,95031.38
2023-02-22T04:21:35.869Z,95034.56
2023-02-22T04:24:06.671Z,95032.16
2023-02-22T04:26:34.859Z,95042.34
2023-02-22T04:29:05.365Z,95040.13
2023-02-22T04:31:40.106Z,95042.94
2023-02-22T04:34:08.231Z,95043.78
2023-02-22T04:36:42.366Z,95041.00
2023-02-22T04:39:12.176Z,95041.00
2023-02-22T04:41:40.132Z,95041.38
2023-02-22T04:44:08.936Z,95044.78
2023-02-22T04:46:37.006Z,95043.81
2023-02-22T04:49:05.248Z,95042.25
2023-02-22T04:51:36.975Z,95043.06
2023-02-22T04:54:10.263Z,95039.50
2023-02-22T04:56:44.070Z,95038.09
2023-02-22T04:59:12.170Z,95039.47
2023-02-22T05:01:43.708Z,95045.84
2023-02-22T05:04:11.683Z,95039.88
2023-02-22T05:06:39.650Z,95039.13
2023-02-22T05:09:07.622Z,95042.31
2023-02-22T05:11:35.607Z,95052.91
2023-02-22T05:14:04.951Z,95051.50
2023-02-22T05:16:32.956Z,95049.13
2023-02-22T05:19:00.899Z,95046.72
2023-02-22T05:21:28.882Z,95055.91
2023-02-22T05:23:57.493Z,95045.94
2023-02-22T05:26:25.497Z,95054.69
2023-02-22T05:28:53.498Z,95056.91
2023-02-22T05:31:22.905Z,95053.09
2023-02-22T05:33:51.019Z,95046.72
2023-02-22T05:36:18.988Z,95055.09
2023-02-22T05:38:47.006Z,95054.31
2023-02-22T05:41:15.466Z,95045.72
2023-02-22T05:43:43.552Z,95041.91
2023-02-22T05:46:11.646Z,95038.72
2023-02-22T05:48:41.024Z,95042.31
2023-02-22T05:51:09.713Z,95047.09
2023-02-22T05:53:38.031Z,95047.09
2023-02-22T05:56:06.682Z,95050.28
2023-02-22T05:58:34.685Z,95047.50
2023-02-22T06:01:03.422Z,95049.91
2023-02-22T06:03:31.517Z,95050.88
2023-02-22T06:06:00.892Z,95052.69
2023-02-22T06:08:28.857Z,95056.69
2023-02-22T06:10:56.824Z,95055.69
2023-02-22T06:13:24.851Z,95049.91
2023-02-22T06:15:52.852Z,95051.88
2023-02-22T06:18:20.841Z,95060.66
2023-02-22T06:20:48.962Z,95055.47
2023-02-22T06:23:18.351Z,95056.28
2023-02-22T06:25:46.355Z,95055.47
2023-02-22T06:28:14.359Z,95067.84
2023-02-22T06:30:43.034Z,95067.84
2023-02-22T06:33:11.808Z,95055.09
2023-02-22T06:35:39.800Z,95068.66
2023-02-22T06:38:07.789Z,95065.66
2023-02-22T06:40:37.165Z,95073.41
2023-02-22T06:43:05.210Z,95074.59
2023-02-22T06:45:33.174Z,95071.38
2023-02-22T06:48:01.331Z,95078.56
2023-02-22T06:50:31.188Z,95070.94
2023-02-22T06:52:59.897Z,95084.50
2023-02-22T06:55:30.368Z,95085.69
2023-02-22T06:58:00.519Z,95088.09
2023-02-22T07:00:30.356Z,95094.13
2023-02-22T07:02:59.395Z,95094.41
2023-02-22T07:05:28.396Z,95081.81
2023-02-22T07:08:02.767Z,95088.19
2023-02-22T07:10:33.443Z,95091.94
2023-02-22T07:13:03.469Z,95095.50
2023-02-22T07:15:32.679Z,95093.28
2023-02-22T07:18:00.831Z,95092.03
2023-02-22T07:20:30.475Z,95097.59
2023-02-22T07:22:58.521Z,95095.94
2023-02-22T07:25:27.066Z,95105.06
2023-02-22T07:27:55.028Z,95109.41
2023-02-22T07:30:26.349Z,95111.78
2023-02-22T07:32:55.867Z,95111.59
2023-02-22T07:35:26.434Z,95112.47
2023-02-22T07:37:55.984Z,95110.13
2023-02-22T07:40:25.781Z,95106.97
2023-02-22T07:42:59.516Z,95110.56
2023-02-22T07:45:30.552Z,95108.91
2023-02-22T07:47:58.942Z,95102.47
2023-02-22T07:50:30.141Z,95109.44
2023-02-22T07:53:00.205Z,95107.22
2023-02-22T07:55:30.220Z,95108.59
2023-02-22T07:57:59.981Z,95110.31
2023-02-22T08:00:30.999Z,95107.13
2023-02-22T08:03:00.911Z,95110.34
2023-02-22T08:05:30.588Z,95111.50
2023-02-22T08:07:58.804Z,95106.28
2023-02-22T08:10:27.904Z,95118.22
2023-02-22T08:12:57.673Z,95113.75
2023-02-22T08:15:29.475Z,95116.91
2023-02-22T08:18:01.057Z,95115.66
2023-02-22T08:20:30.188Z,95117.97
2023-02-22T08:22:59.266Z,95120.78
2023-02-22T08:25:29.934Z,95117.31
2023-02-22T08:28:01.299Z,95124.28
2023-02-22T08:30:31.417Z,95120.44
2023-02-22T08:33:02.606Z,95115.00
2023-02-22T08:35:32.399Z,95118.97
2023-02-22T08:38:03.138Z,95112.91
2023-02-22T08:40:34.148Z,95111.03
2023-02-22T08:43:02.693Z,95107.59
2023-02-22T08:45:30.770Z,95106.00
2023-02-22T08:48:00.741Z,95108.44
2023-02-22T08:50:30.539Z,95111.84
2023-02-22T08:53:01.544Z,95111.59
2023-02-22T08:55:32.244Z,95116.81
2023-02-22T08:58:01.492Z,95106.53
2023-02-22T09:00:33.094Z,95119.75
2023-02-22T09:03:03.399Z,95116.06
2023-02-22T09:05:32.060Z,95116.72
2023-02-22T09:08:00.939Z,95118.97
2023-02-22T09:10:31.123Z,95119.34
2023-02-22T09:13:00.977Z,95112.31
2023-02-22T09:15:29.815Z,95119.59
2023-02-22T09:17:58.179Z,95114.25
2023-02-22T09:20:28.616Z,95109.19
2023-02-22T09:22:56.960Z,95119.31
2023-02-22T09:25:25.146Z,95117.03
2023-02-22T09:27:54.780Z,95113.84
2023-02-22T09:30:27.387Z,95115.81
2023-02-22T09:32:58.894Z,95110.97
2023-02-22T09:35:28.821Z,95107.34
2023-02-22T09:37:57.729Z,95111.09
2023-02-22T09:40:29.840Z,95114.88
2023-02-22T09:43:14.573Z,95109.25
2023-02-22T09:45:57.432Z,95112.88
2023-02-22T09:48:26.286Z,95109.53
2023-02-22T09:51:00.721Z,95113.00
2023-02-22T09:53:33.335Z,95106.47
2023-02-22T09:56:06.194Z,95113.84
2023-02-22T09:58:36.811Z,95115.81
2023-02-22T10:01:17.718Z,95115.66
2023-02-22T10:03:52.097Z,95105.91
2023-02-22T10:06:25.463Z,95116.25
2023-02-22T10:08:56.924Z,95110.97
2023-02-22T10:11:39.984Z,95109.66
2023-02-22T10:14:28.772Z,95111.94
2023-02-22T10:17:03.795Z,95109.91
2023-02-22T10:19:39.555Z,95101.38
2023-02-22T10:22:43.405Z,95104.59
2023-02-22T10:25:14.493Z,95113.38
2023-02-22T10:27:48.961Z,95108.50
2023-02-22T10:30:25.451Z,95106.56
2023-02-22T10:32:59.759Z,95107.72
2023-02-22T10:35:30.253Z,95107.97
2023-02-22T10:38:05.403Z,95109.91
2023-02-22T10:40:33.626Z,95110.19
2023-02-22T10:43:06.849Z,95109.91
2023-02-22T10:45:37.199Z,95110.69
2023-02-22T10:48:11.654Z,95110.28
2023-02-22T10:50:42.281Z,95107.63
2023-02-22T10:53:12.737Z,95106.72
2023-02-22T10:56:07.549Z,95108.31
2023-02-22T10:58:47.576Z,95110.63
2023-02-22T11:01:23.307Z,95111.31
2023-02-22T11:04:04.135Z,95101.22
2023-02-22T11:06:33.897Z,95101.31
2023-02-22T11:09:15.687Z,95103.63
2023-02-22T11:11:45.970Z,95105.94
2023-02-22T11:14:25.606Z,95106.78
2023-02-22T11:16:56.939Z,95094.97
2023-02-22T11:19:28.454Z,95094.25
2023-02-22T11:22:00.483Z,95085.44
2023-02-22T11:24:43.614Z,95086.69
2023-02-22T11:27:27.076Z,95079.31
2023-02-22T11:29:59.442Z,95074.78
2023-02-22T11:32:27.515Z,95066.66
2023-02-22T11:35:20.765Z,95065.28
2023-02-22T11:37:48.844Z,95074.38
2023-02-22T11:40:22.283Z,95067.72
2023-02-22T11:43:08.273Z,95061.56
2023-02-22T11:45:37.393Z,95052.47
2023-02-22T11:48:09.011Z,95057.03
2023-02-22T11:50:46.575Z,95052.34
2023-02-22T11:53:27.832Z,95045.75
2023-02-22T11:56:12.095Z,95044.41
2023-02-22T11:58:46.668Z,95044.63
2023-02-22T12:01:23.208Z,95042.34
2023-02-22T12:04:33.136Z,95035.31
2023-02-22T12:07:15.834Z,95037.34
2023-02-22T12:09:48.704Z,95041.09
2023-02-22T12:12:28.555Z,95027.16
2023-02-22T12:15:04.248Z,95024.19
2023-02-22T12:17:54.355Z,95033.84
2023-02-22T12:20:31.984Z,95031.78
2023-02-22T12:23:06.870Z,95036.78
2023-02-22T12:25:38.893Z,95035.53
2023-02-22T12:28:24.682Z,95033.63
2023-02-22T12:30:57.710Z,95024.50
2023-02-22T12:33:30.309Z,95026.47
2023-02-22T12:36:00.571Z,95024.16
2023-02-22T12:38:37.263Z,95023.94
2023-02-22T12:41:15.126Z,95019.47
2023-02-22T12:43:48.448Z,95017.66
2023-02-22T12:46:21.449Z,95010.72
2023-02-22T12:48:53.419Z,95010.53
2023-02-22T12:51:29.327Z,95010.09
2023-02-22T12:54:03.219Z,95006.72
2023-02-22T12:56:35.967Z,95005.34
2023-02-22T12:59:13.536Z,95006.03
2023-02-22T13:01:45.323Z,95008.06
2023-02-22T13:04:20.895Z,95007.63
2023-02-22T13:07:07.092Z,95001.03
2023-02-22T13:09:54.031Z,95000.47
2023-02-22T13:12:28.376Z,95003.75
2023-02-22T13:15:10.738Z,95002.50
2023-02-22T13:17:48.010Z,94998.06
2023-02-22T13:20:23.195Z,94987.19
2023-02-22T13:22:56.969Z,94995.47
2023-02-22T13:25:32.927Z,94990.13
2023-02-22T13:28:10.998Z,94992.06
2023-02-22T13:30:45.658Z,94993.44
2023-02-22T13:33:29.902Z,94991.72
2023-02-22T13:36:25.912Z,94989.66
2023-02-22T13:39:30.379Z,94991.63
2023-02-22T13:42:14.953Z,94985.59
2023-02-22T13:45:21.813Z,94986.97
2023-02-22T13:48:16.608Z,94981.84
2023-02-22T13:51:07.758Z,94988.31
2023-02-22T13:53:44.796Z,94995.69
2023-02-22T13:56:15.947Z,94991.03
2023-02-22T13:58:55.638Z,94988.66
2023-02-22T14:01:46.785Z,94982.63
2023-02-22T14:04:40.732Z,94985.25
2023-02-22T14:07:57.033Z,94979.56
2023-02-22T14:10:47.765Z,94976.94
2023-02-22T14:13:17.207Z,94981.03
2023-02-22T14:16:24.336Z,94986.16
2023-02-22T14:19:06.423Z,94980.81
2023-02-22T14:21:36.309Z,94979.91
2023-02-22T14:24:10.990Z,94979.91
2023-02-22T14:26:40.437Z,94977.16
2023-02-22T14:29:17.797Z,94972.88
2023-02-22T14:32:02.280Z,94980.72
2023-02-22T14:34:50.652Z,94977.63
2023-02-22T14:37:24.975Z,94975.59
2023-02-22T14:39:56.913Z,94979.22
2023-02-22T14:42:30.864Z,94974.00
2023-02-22T14:45:04.062Z,94970.81
2023-02-22T14:47:40.953Z,94977.06
2023-02-22T14:50:15.967Z,94970.25
2023-02-22T14:52:50.059Z,94968.09
2023-02-22T14:55:22.874Z,94966.97
2023-02-22T14:58:02.420Z,94968.56
2023-02-22T15:00:42.090Z,94970.06
2023-02-22T15:03:20.471Z,94972.28
2023-02-22T15:05:49.726Z,94970.72
2023-02-22T15:08:28.075Z,94971.50
2023-02-22T15:10:56.102Z,94974.34
2023-02-22T15:13:26.467Z,94978.34
2023-02-22T15:16:00.353Z,94968.09
2023-02-22T15:18:34.951Z,94965.59
2023-02-22T15:21:10.099Z,94964.03
2023-02-22T15:23:46.955Z,94965.59
2023-02-22T15:26:19.932Z,94970.38
2023-02-22T15:28:48.787Z,94965.16
2023-02-22T15:31:26.618Z,94967.66
2023-02-22T15:33:55.460Z,94961.88
2023-02-22T15:36:27.656Z,94968.56
2023-02-22T15:38:57.048Z,94965.03
2023-02-22T15:41:29.899Z,94970.72
2023-02-22T15:44:07.939Z,94964.69
2023-02-22T15:46:42.371Z,94969.56
2023-02-22T15:49:23.327Z,94965.59
2023-02-22T15:52:03.774Z,94964.00
2023-02-22T15:54:40.699Z,94964.47
2023-02-22T15:57:09.424Z,94969.69
2023-02-22T15:59:44.832Z,94964.94
2023-02-22T16:02:30.038Z,94962.31
2023-02-22T16:05:01.656Z,94961.75
2023-02-22T16:07:30.009Z,94953.31
2023-02-22T16:10:07.900Z,94962.16
2023-02-22T16:12:36.833Z,94955.38
2023-02-22T16:15:15.423Z,94956.94
2023-02-22T16:17:55.999Z,94953.78
2023-02-22T16:20:36.241Z,94949.47
2023-02-22T16:23:25.561Z,94949.13
2023-02-22T16:26:18.967Z,94953.53
2023-02-22T16:28:52.930Z,94948.91
2023-02-22T16:31:22.710Z,94951.06
2023-02-22T16:33:51.247Z,94951.41
2023-02-22T16:36:20.107Z,94951.63
2023-02-22T16:38:49.171Z,94950.25
2023-02-22T16:41:20.492Z,94947.88
2023-02-22T16:43:51.362Z,94953.09
2023-02-22T16:46:20.365Z,94944.69
2023-02-22T16:48:48.581Z,94951.50
2023-02-22T16:51:22.727Z,94952.31
2023-02-22T16:53:51.839Z,94951.97
2023-02-22T16:56:26.632Z,94954.78
2023-02-22T16:58:54.876Z,94953.44
2023-02-22T17:01:23.894Z,94951.13
2023-02-22T17:03:53.789Z,94959.88
2023-02-22T17:06:21.923Z,94955.94
2023-02-22T17:08:51.991Z,94958.94
2023-02-22T17:11:21.970Z,94950.31
2023-02-22T17:13:51.860Z,94963.94
2023-02-22T17:16:20.351Z,94961.16
2023-02-22T17:18:49.892Z,94967.25
2023-02-22T17:21:17.876Z,94965.56
2023-02-22T17:23:46.258Z,94970.16
2023-02-22T17:26:17.581Z,94967.56
2023-02-22T17:28:47.255Z,94984.03
2023-02-22T17:31:22.477Z,94976.53
2023-02-22T17:33:51.394Z,94989.00
2023-02-22T17:36:20.908Z,94979.31
2023-02-22T17:38:49.977Z,94974.66
2023-02-22T17:41:18.035Z,94971.50
2023-02-22T17:43:47.454Z,94986.69
2023-02-22T17:46:15.661Z,94978.75
2023-02-22T17:48:43.941Z,94987.94
2023-02-22T17:51:13.461Z,94989.91
2023-02-22T17:53:41.521Z,94992.69
2023-02-22T17:56:13.372Z,94983.50
2023-02-22T17:58:42.156Z,94995.19
2023-02-22T18:01:24.539Z,94993.25
2023-02-22T18:03:53.229Z,94996.28
2023-02-22T18:06:25.149Z,94992.66
2023-02-22T18:08:56.211Z,94990.50
2023-02-22T18:11:26.420Z,94990.94
2023-02-22T18:13:55.108Z,94992.97
2023-02-22T18:16:25.702Z,94993.38
2023-02-22T18:18:54.104Z,94985.00
2023-02-22T18:21:22.130Z,94985.00
2023-02-22T18:23:50.188Z,94975.00
2023-02-22T18:26:20.348Z,94985.56
2023-02-22T18:28:49.653Z,94977.75
2023-02-22T18:31:19.786Z,94976.16
2023-02-22T18:33:51.250Z,94979.78
2023-02-22T18:36:23.332Z,94980.38
2023-02-22T18:38:52.856Z,94976.59
2023-02-22T18:41:25.292Z,94971.47
2023-02-22T18:43:55.240Z,94975.53
2023-02-22T18:46:24.907Z,94974.00
2023-02-22T18:48:56.203Z,94974.00
2023-02-22T18:51:25.202Z,94976.78
2023-02-22T18:53:59.838Z,94972.16
2023-02-22T18:56:30.104Z,94971.13
2023-02-22T18:58:59.802Z,94970.69
2023-02-22T19:01:29.061Z,94975.00
2023-02-22T19:03:59.333Z,94974.56
2023-02-22T19:06:27.394Z,94972.53
2023-02-22T19:08:55.344Z,94969.81
2023-02-22T19:11:25.422Z,94979.78
2023-02-22T19:13:55.451Z,94973.72
2023-02-22T19:16:25.389Z,94976.53
2023-02-22T19:18:57.392Z,94976.75
2023-02-22T19:21:28.010Z,94978.13
2023-02-22T19:24:01.321Z,94978.50
2023-02-22T19:26:30.169Z,94970.66
2023-02-22T19:28:59.698Z,94971.25
2023-02-22T19:31:31.604Z,94974.06
2023-02-22T19:34:01.764Z,94975.31
2023-02-22T19:36:31.324Z,94975.31
2023-02-22T19:39:02.043Z,94977.34
2023-02-22T19:41:31.023Z,94970.50
2023-02-22T19:43:59.254Z,94979.34
2023-02-22T19:46:27.247Z,94973.13
2023-02-22T19:48:56.443Z,94969.53
2023-02-22T19:51:27.826Z,94976.16
2023-02-22T19:53:59.878Z,94977.75
2023-02-22T19:56:28.420Z,94974.13
2023-02-22T19:58:57.801Z,94974.72
2023-02-22T20:01:29.166Z,94982.75
2023-02-22T20:04:00.348Z,94976.75
2023-02-22T20:06:30.913Z,94972.13
2023-02-22T20:09:00.763Z,94970.50
2023-02-22T20:11:29.521Z,94969.13
2023-02-22T20:13:58.271Z,94976.97
2023-02-22T20:16:26.315Z,94971.75
2023-02-22T20:18:56.205Z,94965.75
2023-02-22T20:21:30.775Z,94969.72
2023-02-22T20:24:01.057Z,94977.75
2023-02-22T20:26:31.975Z,94968.56
2023-02-22T20:29:00.825Z,94964.59
2023-02-22T20:31:29.630Z,94971.41
2023-02-22T20:33:59.644Z,94965.75
2023-02-22T20:36:29.270Z,94968.13
2023-02-22T20:39:00.709Z,94971.41
2023-02-22T20:41:30.361Z,94969.38
2023-02-22T20:43:59.584Z,94972.91
2023-02-22T20:46:31.891Z,94976.91
2023-02-22T20:49:02.056Z,94971.41
2023-02-22T20:51:30.584Z,94980.59
2023-02-22T20:54:00.314Z,94972.53
2023-02-22T20:56:30.369Z,94980.38
2023-02-22T20:58:59.544Z,94973.78
2023-02-22T21:01:28.072Z,94969.59
2023-02-22T21:04:00.515Z,94968.66
2023-02-22T21:06:29.234Z,94972.06
2023-02-22T21:08:59.680Z,94976.69
2023-02-22T21:11:31.637Z,94970.13
2023-02-22T21:14:00.541Z,94971.25
2023-02-22T21:16:30.803Z,94970.25
2023-02-22T21:19:01.179Z,94970.25
2023-02-22T21:21:29.925Z,94971.84
2023-02-22T21:24:01.761Z,94958.22
2023-02-22T21:26:32.734Z,94958.69
2023-02-22T21:29:03.441Z,94951.88
2023-02-22T21:31:32.378Z,94955.50
2023-02-22T21:34:01.269Z,94946.66
2023-02-22T21:36:30.114Z,94956.28
2023-02-22T21:39:00.264Z,94947.69
2023-02-22T21:41:29.950Z,94955.56
2023-02-22T21:44:00.981Z,94949.72
2023-02-22T21:46:30.083Z,94948.19
2023-02-22T21:48:59.554Z,94945.97
2023-02-22T21:51:31.943Z,94946.09
2023-02-22T21:54:02.140Z,94949.72
2023-02-22T21:56:32.393Z,94946.09
2023-02-22T21:59:03.611Z,94941.47
2023-02-22T22:01:34.077Z,94936.41
2023-02-22T22:04:02.880Z,94935.69
2023-02-22T22:06:32.772Z,94935.38
2023-02-22T22:09:01.260Z,94932.78
2023-02-22T22:11:30.704Z,94932.56
2023-02-22T22:13:59.747Z,94942.34
2023-02-22T22:16:30.351Z,94933.66
2023-02-22T22:18:58.485Z,94935.25
2023-02-22T22:21:26.859Z,94935.25
2023-02-22T22:23:56.175Z,94931.72
2023-02-22T22:26:25.846Z,94933.66
2023-02-22T22:28:55.927Z,94933.97
2023-02-22T22:31:26.026Z,94929.13
2023-02-22T22:33:56.960Z,94936.63
2023-02-22T22:36:26.752Z,94930.91
2023-02-22T22:38:57.604Z,94925.72
2023-02-22T22:41:28.116Z,94931.34
2023-02-22T22:43:56.809Z,94922.94
2023-02-22T22:46:24.844Z,94923.81
2023-02-22T22:48:52.865Z,94921.34
2023-02-22T22:51:23.046Z,94915.72
2023-02-22T22:53:51.985Z,94921.94
2023-02-22T22:56:26.070Z,94923.38
2023-02-22T22:58:55.454Z,94916.16
2023-02-22T23:01:27.806Z,94916.16
2023-02-22T23:04:01.343Z,94918.31
2023-02-22T23:06:33.850Z,94918.91
2023-02-22T23:09:10.396Z,94922.94
2023-02-22T23:11:44.435Z,94919.75
2023-02-22T23:14:13.951Z,94913.97
2023-02-22T23:16:42.801Z,94914.88
2023-02-22T23:19:10.881Z,94925.13
2023-02-22T23:21:43.103Z,94922.66
2023-02-22T23:24:15.166Z,94921.78
2023-02-22T23:26:48.348Z,94916.16
2023-02-22T23:29:17.819Z,94924.13
2023-02-22T23:31:48.367Z,94918.31
2023-02-22T23:34:17.901Z,94920.91
2023-02-22T23:36:47.732Z,94914.13
2023-02-22T23:39:20.576Z,94916.88
2023-02-22T23:41:51.164Z,94922.66
2023-02-22T23:44:19.856Z,94918.81
2023-02-22T23:46:49.306Z,94909.63
2023-02-22T23:49:20.422Z,94915.44
2023-02-22T23:51:50.417Z,94908.84
2023-02-22T23:54:20.407Z,94908.50
2023-02-22T23:56:56.842Z,94905.28
2023-02-22T23:59:25.877Z,94897.91
